As Palina — A8JS6 — position and weather

sailwx.info

Track history (hours):
 
Tides and Currents Weather Stations Pressure Air Temp Water Temp Dewpoint Dewpoint Depression Visibility Wind Speed Wind Dir Waves Ship Positions

As Palina

Last reported at 2018-Jun-23 01:17 UTC. Time now 2018-Jun-23 02:36 UTC.
Position N 49°36' W 007°35'.

Length 210 m; draft 10.1 m.

Type: Ship (hazmat cat D). MMSI: 636091130.

Date/timePositionNaut miles runAvg speedWind from/ knotsBaromVisibWave heightAir tempDewpointWater temp
2018-Jun-23 01:17N 49°36' W 007°35'516.6
2018-Jun-23 01:00N 49°37' W 007°29'816.5
2018-Jun-23 00:31N 49°38' W 007°16'816.4
2018-Jun-23 00:00N 49°39' W 007°03'816.5
2018-Jun-22 23:31N 49°41' W 006°51'916.4
2018-Jun-22 22:59N 49°42' W 006°38'816.5
2018-Jun-22 22:31N 49°42' W 006°26'816.8
2018-Jun-22 22:01N 49°43' W 006°13'816.7
2018-Jun-22 21:31N 49°44' W 005°60'917.0
2018-Jun-22 21:00N 49°45' W 005°46'817.2
2018-Jun-22 20:30N 49°46' W 005°34'917.1
2018-Jun-22 20:00N 49°47' W 005°20'917.2
2018-Jun-22 19:28N 49°48' W 005°06'817.1
2018-Jun-22 19:00N 49°49' W 004°54'1017.0
2018-Jun-22 18:24N 49°50' W 004°38'717.0
2018-Jun-22 18:00N 49°51' W 004°28'916.9
2018-Jun-22 17:28N 49°53' W 004°14'816.7
2018-Jun-22 17:00N 49°54' W 004°02'816.4
2018-Jun-22 16:30N 49°55' W 003°49'816.2
2018-Jun-22 16:00N 49°56' W 003°37'815.9
2018-Jun-22 15:31N 49°57' W 003°25'815.4
2018-Jun-22 15:00N 49°58' W 003°13'815.1
2018-Jun-22 14:31N 49°59' W 003°01'815.1
2018-Jun-22 14:00N 50°01' W 002°50'815.2
2018-Jun-22 13:30N 50°03' W 002°39'1415.4
2018-Jun-22 12:35N 50°05' W 002°17'716.2
2018-Jun-22 12:08N 50°01' W 002°07'216.2
2018-Jun-22 11:59N 50°00' W 002°03'715.2
2018-Jun-22 11:30N 49°57' W 001°53'815.7
2018-Jun-22 11:00N 49°54' W 001°42'815.8
2018-Jun-22 10:30N 49°52' W 001°30'917.2
2018-Jun-22 09:58N 49°48' W 001°17'816.9
2018-Jun-22 09:30N 49°45' W 001°06'816.7
2018-Jun-22 09:00N 49°42' W 000°54'917.8
2018-Jun-22 08:30N 49°39' W 000°41'917.6
2018-Jun-22 08:00N 49°35' W 000°29'917.2
2018-Jun-22 07:30N 49°33' W 000°16'714.4
2018-Jun-22 07:00N 49°31' W 000°05'510.8
2018-Jun-22 06:30N 49°30' E 000°03'5 9.3
2018-Jun-22 06:00N 49°27' E 000°09'0 0.4
2018-Jun-22 05:28N 49°27' E 000°10'0 0.0
2018-Jun-22 05:01N 49°27' E 000°10'0 0.0
2018-Jun-22 04:30N 49°27' E 000°10'0 0.0
2018-Jun-22 04:00N 49°28' E 000°10'0 0.0
2018-Jun-22 03:30N 49°27' E 000°10'0 0.0
2018-Jun-22 03:00N 49°28' E 000°10'0 0.0
2018-Jun-22 02:29N 49°27' E 000°10'0 0.0
2018-Jun-22 01:59N 49°28' E 000°10'0 0.0
2018-Jun-22 01:29N 49°28' E 000°10'0 0.0
2018-Jun-22 00:59N 49°28' E 000°10'0 0.0
2018-Jun-22 00:29N 49°28' E 000°10'0 0.0
2018-Jun-21 23:58N 49°28' E 000°10'0 0.0
2018-Jun-21 23:28N 49°28' E 000°10'0 0.0
2018-Jun-21 22:58N 49°28' E 000°10'0 0.0
2018-Jun-21 22:29N 49°27' E 000°10'0 0.0
2018-Jun-21 21:57N 49°28' E 000°10'0 0.0
2018-Jun-21 21:30N 49°28' E 000°10'0 0.0
2018-Jun-21 21:00N 49°28' E 000°10'0 0.0
2018-Jun-21 20:30N 49°27' E 000°10'0 0.0
2018-Jun-21 20:00N 49°28' E 000°10'0 0.6
2018-Jun-21 19:30N 49°27' E 000°09'4 7.1
2018-Jun-21 19:00N 49°29' E 000°04'612.9
2018-Jun-21 18:30N 49°31' W 000°05'3 6.9
2018-Jun-21 18:00N 49°33' W 000°09'715.0
2018-Jun-21 17:31N 49°41' W 000°12'917.3
2018-Jun-21 17:00N 49°49' W 000°11'917.3
2018-Jun-21 16:30N 49°58' W 000°06'817.0
2018-Jun-21 16:00N 50°06' W 000°04'816.9
2018-Jun-21 15:31N 50°14' W 000°03'917.1
2018-Jun-21 15:00N 50°23' W 000°03'714.4
2018-Jun-21 14:30N 50°29' E 000°04'816.4
2018-Jun-21 14:01N 50°31' E 000°16'916.9
2018-Jun-21 13:30N 50°34' E 000°29'917.4
2018-Jun-21 13:00N 50°38' E 000°41'918.8
2018-Jun-21 12:31N 50°44' E 000°52'1020.2
2018-Jun-21 12:01N 50°51' E 001°04'1121.2
2018-Jun-21 11:30N 50°58' E 001°16'1121.2
2018-Jun-21 11:00N 51°05' E 001°29'1020.3
2018-Jun-21 10:31N 51°11' E 001°41'1019.1
2018-Jun-21 10:01N 51°19' E 001°51'816.7
2018-Jun-21 09:31N 51°25' E 002°00'816.3
2018-Jun-21 09:01N 51°22' E 002°12'815.4
2018-Jun-21 08:30N 51°22' E 002°25'815.0
2018-Jun-21 07:58N 51°22' E 002°38'612.4
2018-Jun-21 07:30N 51°22' E 002°47'714.1
2018-Jun-21 07:00N 51°23' E 002°58'713.7
2018-Jun-21 06:30N 51°24' E 003°09'713.7
2018-Jun-21 06:00N 51°24' E 003°20'713.4
2018-Jun-21 05:30N 51°25' E 003°30'4 8.9
2018-Jun-21 05:00N 51°26' E 003°37'510.0
2018-Jun-21 04:30N 51°23' E 003°43'611.4
2018-Jun-21 04:00N 51°21' E 003°52'612.7
2018-Jun-21 03:30N 51°26' E 003°58'611.2
2018-Jun-21 03:01N 51°22' E 004°05'510.4
2018-Jun-21 02:30N 51°22' E 004°14'4 8.1
2018-Jun-21 02:00N 51°18' E 004°16'0 0.8
2018-Jun-21 01:30N 51°18' E 004°16'0 0.0
2018-Jun-21 00:59N 51°18' E 004°16'0 0.0
2018-Jun-21 00:29N 51°18' E 004°16'0 0.0
2018-Jun-20 23:56N 51°18' E 004°16'0 0.0
2018-Jun-20 23:26N 51°18' E 004°16'0 0.0
2018-Jun-20 22:59N 51°18' E 004°16'0 0.0
2018-Jun-20 22:28N 51°18' E 004°16'0 0.0
2018-Jun-20 21:58N 51°18' E 004°16'0 0.0
2018-Jun-20 21:28N 51°18' E 004°16'0 0.0
2018-Jun-20 20:58N 51°18' E 004°16'0 0.0
2018-Jun-20 20:30N 51°18' E 004°16'0 0.0
2018-Jun-20 20:00N 51°18' E 004°16'0 0.0
2018-Jun-20 19:30N 51°18' E 004°16'0 0.0
2018-Jun-20 19:00N 51°18' E 004°16'0 0.0
2018-Jun-20 18:30N 51°18' E 004°16'0 0.0
2018-Jun-20 17:59N 51°18' E 004°16'0 0.0
2018-Jun-20 17:29N 51°18' E 004°16'0 0.0
2018-Jun-20 16:59N 51°18' E 004°16'0 0.0
2018-Jun-20 16:30N 51°18' E 004°16'0 0.0
2018-Jun-20 15:58N 51°18' E 004°16'0 0.0
2018-Jun-20 15:30N 51°18' E 004°16'1 1.2
2018-Jun-20 15:00N 51°18' E 004°16'4 8.0
2018-Jun-20 14:30N 51°22' E 004°13'5 9.4
2018-Jun-20 14:00N 51°22' E 004°06'611.4
2018-Jun-20 13:30N 51°26' E 003°60'611.8
2018-Jun-20 13:00N 51°21' E 003°54'713.4
2018-Jun-20 12:30N 51°23' E 003°43'510.4
2018-Jun-20 12:01N 51°26' E 003°37'5 9.9
2018-Jun-20 11:30N 51°25' E 003°29'815.4
2018-Jun-20 11:00N 51°24' E 003°17'815.9
2018-Jun-20 10:30N 51°24' E 003°04'611.0
2018-Jun-20 10:00N 51°30' E 003°03'816.8
2018-Jun-20 09:30N 51°37' E 003°11'915.4
2018-Jun-20 08:55N 51°45' E 003°16'612.8
2018-Jun-20 08:27N 51°51' E 003°17'716.0
2018-Jun-20 08:00N 51°58' E 003°19'815.9
2018-Jun-20 07:30N 52°06' E 003°21'815.7
2018-Jun-20 07:00N 52°14' E 003°23'815.7
2018-Jun-20 06:30N 52°21' E 003°26'815.7
2018-Jun-20 06:00N 52°29' E 003°28'815.9
2018-Jun-20 05:30N 52°37' E 003°31'1016.9
2018-Jun-20 04:54N 52°45' E 003°42'717.3
2018-Jun-20 04:30N 52°50' E 003°49'5816.7
2018-Jun-20 01:01N 53°33' E 004°54'015.7
2018-Jun-20 01:00N 53°33' E 004°54'816.0
2018-Jun-20 00:30N 53°36' E 005°07'9816.5
2018-Jun-19 18:35N 54°02' E 007°46'617.3
2018-Jun-19 18:14N 54°01' E 007°56'717.2
2018-Jun-19 17:50N 54°01' E 008°08'413.5
2018-Jun-19 17:30N 53°60' E 008°16'917.0
2018-Jun-19 17:00N 53°58' E 008°30'714.5
2018-Jun-19 16:31N 53°55' E 008°41'611.4
2018-Jun-19 16:00N 53°51' E 008°47'611.5
2018-Jun-19 15:30N 53°51' E 008°56'612.8
2018-Jun-19 15:00N 53°53' E 009°07'4 8.6
2018-Jun-19 14:30N 53°53' E 009°14'510.2
2018-Jun-19 14:00N 53°50' E 009°21'612.2
2018-Jun-19 13:30N 53°44' E 009°26'612.6
2018-Jun-19 13:00N 53°39' E 009°31'713.1
2018-Jun-19 12:31N 53°34' E 009°39'611.5
2018-Jun-19 12:00N 53°33' E 009°48'4 6.7
2018-Jun-19 11:28N 53°32' E 009°54'0 0.0
2018-Jun-19 11:00N 53°32' E 009°54'0 0.0
2018-Jun-19 10:30N 53°32' E 009°54'0 0.0
2018-Jun-19 10:00N 53°32' E 009°54'0 0.0
2018-Jun-19 09:30N 53°32' E 009°54'0 0.0
2018-Jun-19 09:00N 53°32' E 009°54'0 0.0
2018-Jun-19 08:29N 53°32' E 009°54'0 0.0
2018-Jun-19 07:59N 53°32' E 009°54'0 0.0
2018-Jun-19 07:29N 53°32' E 009°54'0 0.0
2018-Jun-19 06:59N 53°32' E 009°54'0 0.0
2018-Jun-19 06:29N 53°32' E 009°54'0 0.0
2018-Jun-19 05:58N 53°32' E 009°54'0 0.0
2018-Jun-19 05:28N 53°32' E 009°54'0 0.0
2018-Jun-19 04:58N 53°32' E 009°54'0 0.0
2018-Jun-19 04:28N 53°32' E 009°54'0 0.0
2018-Jun-19 04:00N 53°32' E 009°54'0 0.0
2018-Jun-19 03:30N 53°32' E 009°54'0 0.0
2018-Jun-19 03:00N 53°32' E 009°54'0 0.0
2018-Jun-19 02:30N 53°32' E 009°54'0 0.0
2018-Jun-19 02:00N 53°32' E 009°54'0 0.0
2018-Jun-19 01:29N 53°32' E 009°54'0 0.0
2018-Jun-19 00:59N 53°32' E 009°54'0 0.0
2018-Jun-19 00:29N 53°32' E 009°54'0 0.0
2018-Jun-18 23:59N 53°32' E 009°54'0 0.0
2018-Jun-18 23:28N 53°32' E 009°54'0 0.0
2018-Jun-18 22:58N 53°32' E 009°54'0 0.0
2018-Jun-18 22:28N 53°32' E 009°54'0 0.0
2018-Jun-18 21:58N 53°32' E 009°54'0 0.0
2018-Jun-18 21:28N 53°32' E 009°54'0 0.0
2018-Jun-18 21:00N 53°32' E 009°54'0 0.2
2018-Jun-18 20:30N 53°32' E 009°54'2 3.3
2018-Jun-18 20:00N 53°33' E 009°52'4 8.5
2018-Jun-18 19:31N 53°34' E 009°45'5 9.9
2018-Jun-18 19:00N 53°35' E 009°37'611.6
2018-Jun-18 18:30N 53°40' E 009°31'612.7
2018-Jun-18 18:00N 53°45' E 009°24'713.3
2018-Jun-18 17:31N 53°51' E 009°19'611.7
2018-Jun-18 17:01N 53°53' E 009°10'611.4
2018-Jun-18 16:30N 53°51' E 009°01'815.2
2018-Jun-18 16:00N 53°50' E 008°48'611.9
2018-Jun-18 15:30N 53°55' E 008°41'714.9
2018-Jun-18 15:00N 53°58' E 008°30'815.0
2018-Jun-18 14:30N 53°60' E 008°17'611.3
2018-Jun-18 14:00N 53°59' E 008°08'3 5.4
2018-Jun-18 13:30N 53°58' E 008°03'3 5.5
2018-Jun-18 12:59N 53°58' E 007°58'4 7.9
2018-Jun-18 12:29N 53°57' E 007°52'4 9.1
2018-Jun-18 12:00N 53°56' E 007°45'7512.5
2018-Jun-18 05:57N 53°37' E 005°41'813.3
2018-Jun-18 05:21N 53°34' E 005°29'513.0
2018-Jun-18 05:00N 53°33' E 005°22'613.0
2018-Jun-18 04:30N 53°31' E 005°11'612.9
2018-Jun-18 04:00N 53°29' E 005°01'613.0
2018-Jun-18 03:30N 53°26' E 004°51'612.4
2018-Jun-18 03:00N 53°23' E 004°42'713.2
2018-Jun-18 02:30N 53°17' E 004°38'613.0
2018-Jun-18 02:00N 53°11' E 004°34'613.0
2018-Jun-18 01:30N 53°05' E 004°27'713.0
2018-Jun-18 01:00N 53°00' E 004°21'613.1
2018-Jun-18 00:30N 52°54' E 004°17'713.0
2018-Jun-18 00:00N 52°48' E 004°12'712.9
2018-Jun-17 23:29N 52°43' E 004°05'613.0
2018-Jun-17 23:00N 52°38' E 003°58'613.1
2018-Jun-17 22:30N 52°34' E 003°50'713.3
2018-Jun-17 22:00N 52°29' E 003°42'1413.8
2018-Jun-17 21:00N 52°20' E 003°26'714.3
2018-Jun-17 20:30N 52°15' E 003°17'1314.6
2018-Jun-17 19:37N 52°06' E 003°02'214.0
2018-Jun-17 19:30N 52°05' E 002°60'714.4
2018-Jun-17 18:59N 52°04' E 002°48'814.7
2018-Jun-17 18:27N 52°02' E 002°36'715.1
2018-Jun-17 17:59N 51°59' E 002°25'815.8
2018-Jun-17 17:29N 51°55' E 002°14'816.0
2018-Jun-17 17:00N 51°52' E 002°03'815.9
2018-Jun-17 16:30N 51°48' E 001°51'714.0
2018-Jun-17 16:01N 51°50' E 001°40'5 9.7
2018-Jun-17 15:30N 51°48' E 001°33'917.1
2018-Jun-17 15:00N 51°41' E 001°26'917.0
2018-Jun-17 14:30N 51°35' E 001°16'815.4
2018-Jun-17 14:00N 51°31' E 001°05'714.1
2018-Jun-17 13:30N 51°29' E 000°54'714.5
2018-Jun-17 13:00N 51°30' E 000°43'613.0
2018-Jun-17 12:30N 51°30' E 000°32'2 3.6
2018-Jun-17 12:00N 51°30' E 000°29'0 0.0
2018-Jun-17 11:30N 51°30' E 000°29'0 0.0
2018-Jun-17 11:00N 51°30' E 000°29'0 0.0
2018-Jun-17 10:31N 51°30' E 000°29'0 0.0
2018-Jun-17 10:01N 51°30' E 000°29'0 0.0
2018-Jun-17 09:31N 51°30' E 000°29'0 0.0
2018-Jun-17 08:59N 51°30' E 000°29'0 0.0
2018-Jun-17 08:31N 51°30' E 000°29'0 0.0
2018-Jun-17 08:01N 51°30' E 000°29'0 0.0
2018-Jun-17 07:31N 51°30' E 000°29'0 0.0
2018-Jun-17 07:01N 51°30' E 000°29'0 0.0
2018-Jun-17 06:31N 51°30' E 000°29'0 0.0
2018-Jun-17 06:01N 51°30' E 000°29'0 0.0
2018-Jun-17 05:30N 51°30' E 000°29'0 0.0
2018-Jun-17 04:59N 51°30' E 000°29'0 0.0
2018-Jun-17 04:31N 51°30' E 000°29'0 0.0
2018-Jun-17 04:01N 51°30' E 000°29'0 0.0
2018-Jun-17 03:31N 51°30' E 000°29'0 0.0
2018-Jun-17 03:01N 51°30' E 000°29'0 0.0
2018-Jun-17 02:30N 51°30' E 000°29'0 0.0
2018-Jun-17 01:58N 51°30' E 000°29'0 0.0
2018-Jun-17 01:31N 51°30' E 000°29'0 0.0
2018-Jun-17 01:00N 51°30' E 000°29'0 0.0
2018-Jun-17 00:31N 51°30' E 000°29'0 0.0
2018-Jun-17 00:00N 51°30' E 000°29'0 0.0
2018-Jun-16 23:29N 51°30' E 000°29'0 0.0
2018-Jun-16 23:01N 51°30' E 000°29'0 0.0
2018-Jun-16 22:30N 51°30' E 000°29'0 0.3
2018-Jun-16 22:00N 51°30' E 000°30'4 7.0
2018-Jun-16 21:30N 51°30' E 000°35'612.6
2018-Jun-16 21:00N 51°29' E 000°45'612.5
2018-Jun-16 20:31N 51°29' E 000°55'714.3
2018-Jun-16 20:00N 51°32' E 001°06'714.4
2018-Jun-16 19:30N 51°35' E 001°16'815.0
2018-Jun-16 19:00N 51°40' E 001°25'815.1
2018-Jun-16 18:30N 51°46' E 001°32'713.6
2018-Jun-16 18:01N 51°51' E 001°40'2 4.4
2018-Jun-16 17:31N 51°52' E 001°43'3 7.0
2018-Jun-16 17:01N 51°55' E 001°45'3 5.6
2018-Jun-16 16:31N 51°58' E 001°48'3 5.3
2018-Jun-16 16:01N 51°55' E 001°48'4 7.1
2018-Jun-16 15:31N 51°52' E 001°48'3 7.0
2018-Jun-16 15:01N 51°50' E 001°53'4 8.3
2018-Jun-16 14:31N 51°51' E 001°59'5 9.1
2018-Jun-16 14:01N 51°53' E 002°06'5 9.5
2018-Jun-16 13:31N 51°55' E 002°13'510.0
2018-Jun-16 13:01N 51°56' E 002°21'510.4
2018-Jun-16 12:30N 51°57' E 002°29'610.7
2018-Jun-16 11:59N 51°58' E 002°38'510.2
2018-Jun-16 11:30N 51°59' E 002°46'511.1
2018-Jun-16 11:00N 51°60' E 002°55'611.5
2018-Jun-16 10:28N 52°01' E 003°05'611.6
2018-Jun-16 09:56N 52°02' E 003°15'511.6
2018-Jun-16 09:29N 52°02' E 003°23'611.7
2018-Jun-16 09:00N 52°03' E 003°32'611.7
2018-Jun-16 08:30N 52°03' E 003°41'510.7
2018-Jun-16 08:01N 52°03' E 003°50'4 7.3
2018-Jun-16 07:30N 52°02' E 003°56'714.2
2018-Jun-16 07:00N 51°59' E 004°06'612.4
2018-Jun-16 06:30N 51°55' E 004°14'5 9.1
2018-Jun-16 06:00N 51°54' E 004°22'3 6.0
2018-Jun-16 05:30N 51°54' E 004°26'0 0.7
2018-Jun-16 04:59N 51°53' E 004°26'0 0.0
2018-Jun-16 04:29N 51°53' E 004°26'0 0.0
2018-Jun-16 03:58N 51°53' E 004°26'0 0.0
2018-Jun-16 03:28N 51°53' E 004°26'0 0.0
2018-Jun-16 02:58N 51°53' E 004°26'0 0.0
2018-Jun-16 02:28N 51°53' E 004°26'0 0.0
2018-Jun-16 02:01N 51°53' E 004°26'0 0.0
2018-Jun-16 01:30N 51°53' E 004°26'0 0.0
2018-Jun-16 01:00N 51°53' E 004°26'0 0.0
2018-Jun-16 00:30N 51°53' E 004°26'0 0.0
2018-Jun-16 00:00N 51°53' E 004°26'0 0.0
2018-Jun-15 23:29N 51°53' E 004°26'0 0.0
2018-Jun-15 22:59N 51°53' E 004°26'0 0.0
2018-Jun-15 22:29N 51°53' E 004°26'0 0.0
2018-Jun-15 21:59N 51°53' E 004°26'0 0.0
2018-Jun-15 21:29N 51°53' E 004°26'0 0.0
2018-Jun-15 20:58N 51°53' E 004°26'0 0.0
2018-Jun-15 20:28N 51°53' E 004°26'0 0.0
2018-Jun-15 19:58N 51°53' E 004°26'0 0.0
2018-Jun-15 19:28N 51°53' E 004°26'0 0.0
2018-Jun-15 19:00N 51°53' E 004°26'0 0.0
2018-Jun-15 18:27N 51°53' E 004°26'0 0.0
2018-Jun-15 18:00N 51°53' E 004°26'0 0.0
2018-Jun-15 17:30N 51°53' E 004°26'0 0.0
2018-Jun-15 17:00N 51°53' E 004°26'0 0.0
2018-Jun-15 16:29N 51°53' E 004°26'0 0.0
2018-Jun-15 15:59N 51°53' E 004°26'0 0.0
2018-Jun-15 15:29N 51°53' E 004°26'0 0.0
2018-Jun-15 14:59N 51°53' E 004°26'0 0.0
2018-Jun-15 14:29N 51°53' E 004°26'0 0.0
2018-Jun-15 13:58N 51°53' E 004°26'0 0.0
2018-Jun-15 13:28N 51°53' E 004°26'0 0.0
2018-Jun-15 12:58N 51°53' E 004°26'0 0.0
2018-Jun-15 12:28N 51°53' E 004°26'0 0.0
2018-Jun-15 12:00N 51°53' E 004°26'0 0.0
2018-Jun-15 11:30N 51°53' E 004°26'0 0.0
2018-Jun-15 11:00N 51°53' E 004°26'0 0.0
2018-Jun-15 10:30N 51°53' E 004°26'0 0.0
2018-Jun-15 10:00N 51°53' E 004°26'0 0.0
2018-Jun-15 09:29N 51°53' E 004°26'0 0.0
2018-Jun-15 08:59N 51°53' E 004°26'0 0.0
2018-Jun-15 08:29N 51°53' E 004°26'0 0.0
2018-Jun-15 07:59N 51°53' E 004°26'0 0.0
2018-Jun-15 07:29N 51°53' E 004°26'0 0.0
2018-Jun-15 06:58N 51°53' E 004°26'0 0.0
2018-Jun-15 06:28N 51°53' E 004°26'0 0.0
2018-Jun-15 05:58N 51°53' E 004°26'0 0.0
2018-Jun-15 05:28N 51°53' E 004°26'0 0.0
2018-Jun-15 05:00N 51°53' E 004°26'0 0.0
2018-Jun-15 04:30N 51°53' E 004°26'0 0.8
2018-Jun-15 04:00N 51°54' E 004°26'3 5.5
2018-Jun-15 03:30N 51°54' E 004°22'4 7.9
2018-Jun-15 03:00N 51°54' E 004°15'713.6
2018-Jun-15 02:31N 51°59' E 004°07'815.8
2018-Jun-15 02:00N 52°00' E 003°54'510.0
2018-Jun-15 01:31N 51°59' E 003°46'3 6.3
2018-Jun-15 01:00N 51°58' E 003°42'2 3.7
2018-Jun-15 00:31N 51°56' E 003°44'0 0.2
2018-Jun-14 23:54N 51°56' E 003°44'0 0.1
2018-Jun-14 23:30N 51°56' E 003°44'0 0.0
2018-Jun-14 22:45N 51°56' E 003°44'0 0.0
2018-Jun-14 22:30N 51°56' E 003°44'0 0.0
2018-Jun-14 22:00N 51°56' E 003°44'0 0.0
2018-Jun-14 21:30N 51°56' E 003°44'0 0.0
2018-Jun-14 21:00N 51°56' E 003°44'0 0.0
2018-Jun-14 20:30N 51°56' E 003°44'0 0.0
2018-Jun-14 20:00N 51°56' E 003°44'0 0.2
2018-Jun-14 19:30N 51°56' E 003°44'0 0.0
2018-Jun-14 18:59N 51°56' E 003°44'0 0.0
2018-Jun-14 17:58N 51°56' E 003°44'0 0.0
2018-Jun-14 17:29N 51°56' E 003°44'0 0.0
2018-Jun-14 17:00N 51°56' E 003°44'0 0.0
2018-Jun-14 16:29N 51°56' E 003°44'0 0.0
2018-Jun-14 16:00N 51°56' E 003°44'0 0.0
2018-Jun-14 15:30N 51°56' E 003°44'0 0.0
2018-Jun-14 15:00N 51°56' E 003°44'0 0.0
2018-Jun-14 14:30N 51°56' E 003°44'0 0.0
2018-Jun-14 14:00N 51°56' E 003°44'0 0.0
2018-Jun-14 13:30N 51°56' E 003°44'0 0.0
2018-Jun-14 13:00N 51°56' E 003°44'0 0.1
2018-Jun-14 12:30N 51°56' E 003°44'0 0.0
2018-Jun-14 12:01N 51°56' E 003°44'0 0.0
2018-Jun-14 11:27N 51°56' E 003°44'0 0.0
2018-Jun-14 10:57N 51°56' E 003°44'0 0.0
2018-Jun-14 10:30N 51°56' E 003°44'0 0.0
2018-Jun-14 10:00N 51°56' E 003°44'0 0.0
2018-Jun-14 09:29N 51°56' E 003°44'0 0.1
2018-Jun-14 09:00N 51°56' E 003°44'0 0.0
2018-Jun-14 08:30N 51°56' E 003°44'0 0.1
2018-Jun-14 08:00N 51°56' E 003°44'0 0.0
2018-Jun-14 07:30N 51°56' E 003°44'0 0.0
2018-Jun-14 07:01N 51°56' E 003°44'0 0.0
2018-Jun-14 06:31N 51°56' E 003°44'0 0.0
2018-Jun-14 06:00N 51°56' E 003°44'0 0.0
2018-Jun-14 05:30N 51°56' E 003°44'0 0.0
2018-Jun-14 05:01N 51°56' E 003°44'0 0.0
2018-Jun-14 04:30N 51°56' E 003°44'0 0.0
2018-Jun-14 04:00N 51°56' E 003°44'0 0.0
2018-Jun-14 03:30N 51°56' E 003°44'0 0.0
2018-Jun-14 03:00N 51°56' E 003°44'0 0.0
2018-Jun-14 02:30N 51°56' E 003°44'0 0.0
2018-Jun-14 02:00N 51°56' E 003°44'0 0.0
2018-Jun-14 01:30N 51°56' E 003°44'0 0.0
2018-Jun-14 01:00N 51°56' E 003°44'0 0.0
2018-Jun-14 00:30N 51°56' E 003°44'0 0.0
2018-Jun-14 00:00N 51°56' E 003°44'0 0.0
2018-Jun-13 23:30N 51°56' E 003°44'0 0.1
2018-Jun-13 23:00N 51°56' E 003°44'0 0.0
2018-Jun-13 22:31N 51°56' E 003°44'0 0.0
2018-Jun-13 22:00N 51°56' E 003°44'0 0.0
2018-Jun-13 21:30N 51°56' E 003°44'0 0.0
2018-Jun-13 21:00N 51°56' E 003°44'0 0.0
2018-Jun-13 20:30N 51°56' E 003°44'0 0.0
2018-Jun-13 20:00N 51°56' E 003°44'0 0.0
2018-Jun-13 19:30N 51°56' E 003°44'0 0.0
2018-Jun-13 19:00N 51°56' E 003°44'0 0.0
2018-Jun-13 18:31N 51°56' E 003°44'0 0.1
2018-Jun-13 18:00N 51°56' E 003°44'0 0.0
2018-Jun-13 17:31N 51°56' E 003°44'0 0.0
2018-Jun-13 17:01N 51°56' E 003°44'0 0.0
2018-Jun-13 16:30N 51°56' E 003°44'0 0.0
2018-Jun-13 16:01N 51°56' E 003°44'0 0.0
2018-Jun-13 15:30N 51°56' E 003°44'0 0.0
2018-Jun-13 15:00N 51°56' E 003°44'0 0.0
2018-Jun-13 14:30N 51°56' E 003°44'0 0.0
2018-Jun-13 14:00N 51°56' E 003°44'0 0.0
2018-Jun-13 13:31N 51°56' E 003°44'0 0.0
2018-Jun-13 13:00N 51°56' E 003°44'0 0.1
2018-Jun-13 12:29N 51°56' E 003°44'0 0.0
2018-Jun-13 11:59N 51°56' E 003°44'0 0.1
2018-Jun-13 11:31N 51°56' E 003°44'0 0.0
2018-Jun-13 11:00N 51°56' E 003°44'0 0.0
2018-Jun-13 10:30N 51°56' E 003°44'0 0.0
2018-Jun-13 10:00N 51°56' E 003°44'0 0.0
2018-Jun-13 09:31N 51°56' E 003°44'0 0.0
2018-Jun-13 09:00N 51°56' E 003°44'0 0.0
2018-Jun-13 08:31N 51°56' E 003°44'0 0.0
2018-Jun-13 07:59N 51°56' E 003°44'0 0.0
2018-Jun-13 07:30N 51°56' E 003°44'0 0.0
2018-Jun-13 07:00N 51°56' E 003°44'0 0.0
2018-Jun-13 06:29N 51°56' E 003°44'0 0.0
2018-Jun-13 06:01N 51°56' E 003°44'0 0.0
2018-Jun-13 05:31N 51°56' E 003°44'0 0.0
2018-Jun-13 05:00N 51°56' E 003°44'0 0.0
2018-Jun-13 04:31N 51°56' E 003°44'0 0.0
2018-Jun-13 04:00N 51°56' E 003°44'0 0.0
2018-Jun-13 03:31N 51°56' E 003°44'0 0.0
2018-Jun-13 03:00N 51°56' E 003°44'0 0.1
2018-Jun-13 02:30N 51°56' E 003°44'0 0.0
2018-Jun-13 02:00N 51°56' E 003°44'0 0.0
2018-Jun-13 01:31N 51°56' E 003°44'  
Track history (hours):
 
Tides and Currents Weather Stations Pressure Air Temp Water Temp Dewpoint Dewpoint Depression Visibility Wind Speed Wind Dir Waves Ship Positions

As Palina

Last reported at 2018-Jun-23 01:17 UTC. Time now 2018-Jun-23 02:36 UTC.
Position N 49°36' W 007°35'.

Length 210 m; draft 10.1 m.

Type: Ship (hazmat cat D). MMSI: 636091130.

Date/timePositionNaut miles runAvg speedWind from/ knotsBaromVisibWave heightAir tempDewpointWater temp
2018-Jun-23 01:17N 49°36' W 007°35'516.6
2018-Jun-23 01:00N 49°37' W 007°29'816.5
2018-Jun-23 00:31N 49°38' W 007°16'816.4
2018-Jun-23 00:00N 49°39' W 007°03'816.5
2018-Jun-22 23:31N 49°41' W 006°51'916.4
2018-Jun-22 22:59N 49°42' W 006°38'816.5
2018-Jun-22 22:31N 49°42' W 006°26'816.8
2018-Jun-22 22:01N 49°43' W 006°13'816.7
2018-Jun-22 21:31N 49°44' W 005°60'917.0
2018-Jun-22 21:00N 49°45' W 005°46'817.2
2018-Jun-22 20:30N 49°46' W 005°34'917.1
2018-Jun-22 20:00N 49°47' W 005°20'917.2
2018-Jun-22 19:28N 49°48' W 005°06'817.1
2018-Jun-22 19:00N 49°49' W 004°54'1017.0
2018-Jun-22 18:24N 49°50' W 004°38'717.0
2018-Jun-22 18:00N 49°51' W 004°28'916.9
2018-Jun-22 17:28N 49°53' W 004°14'816.7
2018-Jun-22 17:00N 49°54' W 004°02'816.4
2018-Jun-22 16:30N 49°55' W 003°49'816.2
2018-Jun-22 16:00N 49°56' W 003°37'815.9
2018-Jun-22 15:31N 49°57' W 003°25'815.4
2018-Jun-22 15:00N 49°58' W 003°13'815.1
2018-Jun-22 14:31N 49°59' W 003°01'815.1
2018-Jun-22 14:00N 50°01' W 002°50'815.2
2018-Jun-22 13:30N 50°03' W 002°39'1415.4
2018-Jun-22 12:35N 50°05' W 002°17'716.2
2018-Jun-22 12:08N 50°01' W 002°07'216.2
2018-Jun-22 11:59N 50°00' W 002°03'715.2
2018-Jun-22 11:30N 49°57' W 001°53'815.7
2018-Jun-22 11:00N 49°54' W 001°42'815.8
2018-Jun-22 10:30N 49°52' W 001°30'917.2
2018-Jun-22 09:58N 49°48' W 001°17'816.9
2018-Jun-22 09:30N 49°45' W 001°06'816.7
2018-Jun-22 09:00N 49°42' W 000°54'917.8
2018-Jun-22 08:30N 49°39' W 000°41'917.6
2018-Jun-22 08:00N 49°35' W 000°29'917.2
2018-Jun-22 07:30N 49°33' W 000°16'714.4
2018-Jun-22 07:00N 49°31' W 000°05'510.8
2018-Jun-22 06:30N 49°30' E 000°03'5 9.3
2018-Jun-22 06:00N 49°27' E 000°09'0 0.4
2018-Jun-22 05:28N 49°27' E 000°10'0 0.0
2018-Jun-22 05:01N 49°27' E 000°10'0 0.0
2018-Jun-22 04:30N 49°27' E 000°10'0 0.0
2018-Jun-22 04:00N 49°28' E 000°10'0 0.0
2018-Jun-22 03:30N 49°27' E 000°10'0 0.0
2018-Jun-22 03:00N 49°28' E 000°10'0 0.0
2018-Jun-22 02:29N 49°27' E 000°10'0 0.0
2018-Jun-22 01:59N 49°28' E 000°10'0 0.0
2018-Jun-22 01:29N 49°28' E 000°10'0 0.0
2018-Jun-22 00:59N 49°28' E 000°10'0 0.0
2018-Jun-22 00:29N 49°28' E 000°10'0 0.0
2018-Jun-21 23:58N 49°28' E 000°10'0 0.0
2018-Jun-21 23:28N 49°28' E 000°10'0 0.0
2018-Jun-21 22:58N 49°28' E 000°10'0 0.0
2018-Jun-21 22:29N 49°27' E 000°10'0 0.0
2018-Jun-21 21:57N 49°28' E 000°10'0 0.0
2018-Jun-21 21:30N 49°28' E 000°10'0 0.0
2018-Jun-21 21:00N 49°28' E 000°10'0 0.0
2018-Jun-21 20:30N 49°27' E 000°10'0 0.0
2018-Jun-21 20:00N 49°28' E 000°10'0 0.6
2018-Jun-21 19:30N 49°27' E 000°09'4 7.1
2018-Jun-21 19:00N 49°29' E 000°04'612.9
2018-Jun-21 18:30N 49°31' W 000°05'3 6.9
2018-Jun-21 18:00N 49°33' W 000°09'715.0
2018-Jun-21 17:31N 49°41' W 000°12'917.3
2018-Jun-21 17:00N 49°49' W 000°11'917.3
2018-Jun-21 16:30N 49°58' W 000°06'817.0
2018-Jun-21 16:00N 50°06' W 000°04'816.9
2018-Jun-21 15:31N 50°14' W 000°03'917.1
2018-Jun-21 15:00N 50°23' W 000°03'714.4
2018-Jun-21 14:30N 50°29' E 000°04'816.4
2018-Jun-21 14:01N 50°31' E 000°16'916.9
2018-Jun-21 13:30N 50°34' E 000°29'917.4
2018-Jun-21 13:00N 50°38' E 000°41'918.8
2018-Jun-21 12:31N 50°44' E 000°52'1020.2
2018-Jun-21 12:01N 50°51' E 001°04'1121.2
2018-Jun-21 11:30N 50°58' E 001°16'1121.2
2018-Jun-21 11:00N 51°05' E 001°29'1020.3
2018-Jun-21 10:31N 51°11' E 001°41'1019.1
2018-Jun-21 10:01N 51°19' E 001°51'816.7
2018-Jun-21 09:31N 51°25' E 002°00'816.3
2018-Jun-21 09:01N 51°22' E 002°12'815.4
2018-Jun-21 08:30N 51°22' E 002°25'815.0
2018-Jun-21 07:58N 51°22' E 002°38'612.4
2018-Jun-21 07:30N 51°22' E 002°47'714.1
2018-Jun-21 07:00N 51°23' E 002°58'713.7
2018-Jun-21 06:30N 51°24' E 003°09'713.7
2018-Jun-21 06:00N 51°24' E 003°20'713.4
2018-Jun-21 05:30N 51°25' E 003°30'4 8.9
2018-Jun-21 05:00N 51°26' E 003°37'510.0
2018-Jun-21 04:30N 51°23' E 003°43'611.4
2018-Jun-21 04:00N 51°21' E 003°52'612.7
2018-Jun-21 03:30N 51°26' E 003°58'611.2
2018-Jun-21 03:01N 51°22' E 004°05'510.4
2018-Jun-21 02:30N 51°22' E 004°14'4 8.1
2018-Jun-21 02:00N 51°18' E 004°16'0 0.8
2018-Jun-21 01:30N 51°18' E 004°16'0 0.0
2018-Jun-21 00:59N 51°18' E 004°16'0 0.0
2018-Jun-21 00:29N 51°18' E 004°16'0 0.0
2018-Jun-20 23:56N 51°18' E 004°16'0 0.0
2018-Jun-20 23:26N 51°18' E 004°16'0 0.0
2018-Jun-20 22:59N 51°18' E 004°16'0 0.0
2018-Jun-20 22:28N 51°18' E 004°16'0 0.0
2018-Jun-20 21:58N 51°18' E 004°16'0 0.0
2018-Jun-20 21:28N 51°18' E 004°16'0 0.0
2018-Jun-20 20:58N 51°18' E 004°16'0 0.0
2018-Jun-20 20:30N 51°18' E 004°16'0 0.0
2018-Jun-20 20:00N 51°18' E 004°16'0 0.0
2018-Jun-20 19:30N 51°18' E 004°16'0 0.0
2018-Jun-20 19:00N 51°18' E 004°16'0 0.0
2018-Jun-20 18:30N 51°18' E 004°16'0 0.0
2018-Jun-20 17:59N 51°18' E 004°16'0 0.0
2018-Jun-20 17:29N 51°18' E 004°16'0 0.0
2018-Jun-20 16:59N 51°18' E 004°16'0 0.0
2018-Jun-20 16:30N 51°18' E 004°16'0 0.0
2018-Jun-20 15:58N 51°18' E 004°16'0 0.0
2018-Jun-20 15:30N 51°18' E 004°16'1 1.2
2018-Jun-20 15:00N 51°18' E 004°16'4 8.0
2018-Jun-20 14:30N 51°22' E 004°13'5 9.4
2018-Jun-20 14:00N 51°22' E 004°06'611.4
2018-Jun-20 13:30N 51°26' E 003°60'611.8
2018-Jun-20 13:00N 51°21' E 003°54'713.4
2018-Jun-20 12:30N 51°23' E 003°43'510.4
2018-Jun-20 12:01N 51°26' E 003°37'5 9.9
2018-Jun-20 11:30N 51°25' E 003°29'815.4
2018-Jun-20 11:00N 51°24' E 003°17'815.9
2018-Jun-20 10:30N 51°24' E 003°04'611.0
2018-Jun-20 10:00N 51°30' E 003°03'816.8
2018-Jun-20 09:30N 51°37' E 003°11'915.4
2018-Jun-20 08:55N 51°45' E 003°16'612.8
2018-Jun-20 08:27N 51°51' E 003°17'716.0
2018-Jun-20 08:00N 51°58' E 003°19'815.9
2018-Jun-20 07:30N 52°06' E 003°21'815.7
2018-Jun-20 07:00N 52°14' E 003°23'815.7
2018-Jun-20 06:30N 52°21' E 003°26'815.7
2018-Jun-20 06:00N 52°29' E 003°28'815.9
2018-Jun-20 05:30N 52°37' E 003°31'1016.9
2018-Jun-20 04:54N 52°45' E 003°42'717.3
2018-Jun-20 04:30N 52°50' E 003°49'5816.7
2018-Jun-20 01:01N 53°33' E 004°54'015.7
2018-Jun-20 01:00N 53°33' E 004°54'816.0
2018-Jun-20 00:30N 53°36' E 005°07'9816.5
2018-Jun-19 18:35N 54°02' E 007°46'617.3
2018-Jun-19 18:14N 54°01' E 007°56'717.2
2018-Jun-19 17:50N 54°01' E 008°08'413.5
2018-Jun-19 17:30N 53°60' E 008°16'917.0
2018-Jun-19 17:00N 53°58' E 008°30'714.5
2018-Jun-19 16:31N 53°55' E 008°41'611.4
2018-Jun-19 16:00N 53°51' E 008°47'611.5
2018-Jun-19 15:30N 53°51' E 008°56'612.8
2018-Jun-19 15:00N 53°53' E 009°07'4 8.6
2018-Jun-19 14:30N 53°53' E 009°14'510.2
2018-Jun-19 14:00N 53°50' E 009°21'612.2
2018-Jun-19 13:30N 53°44' E 009°26'612.6
2018-Jun-19 13:00N 53°39' E 009°31'713.1
2018-Jun-19 12:31N 53°34' E 009°39'611.5
2018-Jun-19 12:00N 53°33' E 009°48'4 6.7
2018-Jun-19 11:28N 53°32' E 009°54'0 0.0
2018-Jun-19 11:00N 53°32' E 009°54'0 0.0
2018-Jun-19 10:30N 53°32' E 009°54'0 0.0
2018-Jun-19 10:00N 53°32' E 009°54'0 0.0
2018-Jun-19 09:30N 53°32' E 009°54'0 0.0
2018-Jun-19 09:00N 53°32' E 009°54'0 0.0
2018-Jun-19 08:29N 53°32' E 009°54'0 0.0
2018-Jun-19 07:59N 53°32' E 009°54'0 0.0
2018-Jun-19 07:29N 53°32' E 009°54'0 0.0
2018-Jun-19 06:59N 53°32' E 009°54'0 0.0
2018-Jun-19 06:29N 53°32' E 009°54'0 0.0
2018-Jun-19 05:58N 53°32' E 009°54'0 0.0
2018-Jun-19 05:28N 53°32' E 009°54'0 0.0
2018-Jun-19 04:58N 53°32' E 009°54'0 0.0
2018-Jun-19 04:28N 53°32' E 009°54'0 0.0
2018-Jun-19 04:00N 53°32' E 009°54'0 0.0
2018-Jun-19 03:30N 53°32' E 009°54'0 0.0
2018-Jun-19 03:00N 53°32' E 009°54'0 0.0
2018-Jun-19 02:30N 53°32' E 009°54'0 0.0
2018-Jun-19 02:00N 53°32' E 009°54'0 0.0
2018-Jun-19 01:29N 53°32' E 009°54'0 0.0
2018-Jun-19 00:59N 53°32' E 009°54'0 0.0
2018-Jun-19 00:29N 53°32' E 009°54'0 0.0
2018-Jun-18 23:59N 53°32' E 009°54'0 0.0
2018-Jun-18 23:28N 53°32' E 009°54'0 0.0
2018-Jun-18 22:58N 53°32' E 009°54'0 0.0
2018-Jun-18 22:28N 53°32' E 009°54'0 0.0
2018-Jun-18 21:58N 53°32' E 009°54'0 0.0
2018-Jun-18 21:28N 53°32' E 009°54'0 0.0
2018-Jun-18 21:00N 53°32' E 009°54'0 0.2
2018-Jun-18 20:30N 53°32' E 009°54'2 3.3
2018-Jun-18 20:00N 53°33' E 009°52'4 8.5
2018-Jun-18 19:31N 53°34' E 009°45'5 9.9
2018-Jun-18 19:00N 53°35' E 009°37'611.6
2018-Jun-18 18:30N 53°40' E 009°31'612.7
2018-Jun-18 18:00N 53°45' E 009°24'713.3
2018-Jun-18 17:31N 53°51' E 009°19'611.7
2018-Jun-18 17:01N 53°53' E 009°10'611.4
2018-Jun-18 16:30N 53°51' E 009°01'815.2
2018-Jun-18 16:00N 53°50' E 008°48'611.9
2018-Jun-18 15:30N 53°55' E 008°41'714.9
2018-Jun-18 15:00N 53°58' E 008°30'815.0
2018-Jun-18 14:30N 53°60' E 008°17'611.3
2018-Jun-18 14:00N 53°59' E 008°08'3 5.4
2018-Jun-18 13:30N 53°58' E 008°03'3 5.5
2018-Jun-18 12:59N 53°58' E 007°58'4 7.9
2018-Jun-18 12:29N 53°57' E 007°52'4 9.1
2018-Jun-18 12:00N 53°56' E 007°45'7512.5
2018-Jun-18 05:57N 53°37' E 005°41'813.3
2018-Jun-18 05:21N 53°34' E 005°29'513.0
2018-Jun-18 05:00N 53°33' E 005°22'613.0
2018-Jun-18 04:30N 53°31' E 005°11'612.9
2018-Jun-18 04:00N 53°29' E 005°01'613.0
2018-Jun-18 03:30N 53°26' E 004°51'612.4
2018-Jun-18 03:00N 53°23' E 004°42'713.2
2018-Jun-18 02:30N 53°17' E 004°38'613.0
2018-Jun-18 02:00N 53°11' E 004°34'613.0
2018-Jun-18 01:30N 53°05' E 004°27'713.0
2018-Jun-18 01:00N 53°00' E 004°21'613.1
2018-Jun-18 00:30N 52°54' E 004°17'713.0
2018-Jun-18 00:00N 52°48' E 004°12'712.9
2018-Jun-17 23:29N 52°43' E 004°05'613.0
2018-Jun-17 23:00N 52°38' E 003°58'613.1
2018-Jun-17 22:30N 52°34' E 003°50'713.3
2018-Jun-17 22:00N 52°29' E 003°42'1413.8
2018-Jun-17 21:00N 52°20' E 003°26'714.3
2018-Jun-17 20:30N 52°15' E 003°17'1314.6
2018-Jun-17 19:37N 52°06' E 003°02'214.0
2018-Jun-17 19:30N 52°05' E 002°60'714.4
2018-Jun-17 18:59N 52°04' E 002°48'814.7
2018-Jun-17 18:27N 52°02' E 002°36'715.1
2018-Jun-17 17:59N 51°59' E 002°25'815.8
2018-Jun-17 17:29N 51°55' E 002°14'816.0
2018-Jun-17 17:00N 51°52' E 002°03'815.9
2018-Jun-17 16:30N 51°48' E 001°51'714.0
2018-Jun-17 16:01N 51°50' E 001°40'5 9.7
2018-Jun-17 15:30N 51°48' E 001°33'917.1
2018-Jun-17 15:00N 51°41' E 001°26'917.0
2018-Jun-17 14:30N 51°35' E 001°16'815.4
2018-Jun-17 14:00N 51°31' E 001°05'714.1
2018-Jun-17 13:30N 51°29' E 000°54'714.5
2018-Jun-17 13:00N 51°30' E 000°43'613.0
2018-Jun-17 12:30N 51°30' E 000°32'2 3.6
2018-Jun-17 12:00N 51°30' E 000°29'0 0.0
2018-Jun-17 11:30N 51°30' E 000°29'0 0.0
2018-Jun-17 11:00N 51°30' E 000°29'0 0.0
2018-Jun-17 10:31N 51°30' E 000°29'0 0.0
2018-Jun-17 10:01N 51°30' E 000°29'0 0.0
2018-Jun-17 09:31N 51°30' E 000°29'0 0.0
2018-Jun-17 08:59N 51°30' E 000°29'0 0.0
2018-Jun-17 08:31N 51°30' E 000°29'0 0.0
2018-Jun-17 08:01N 51°30' E 000°29'0 0.0
2018-Jun-17 07:31N 51°30' E 000°29'0 0.0
2018-Jun-17 07:01N 51°30' E 000°29'0 0.0
2018-Jun-17 06:31N 51°30' E 000°29'0 0.0
2018-Jun-17 06:01N 51°30' E 000°29'0 0.0
2018-Jun-17 05:30N 51°30' E 000°29'0 0.0
2018-Jun-17 04:59N 51°30' E 000°29'0 0.0
2018-Jun-17 04:31N 51°30' E 000°29'0 0.0
2018-Jun-17 04:01N 51°30' E 000°29'0 0.0
2018-Jun-17 03:31N 51°30' E 000°29'0 0.0
2018-Jun-17 03:01N 51°30' E 000°29'0 0.0
2018-Jun-17 02:30N 51°30' E 000°29'0 0.0
2018-Jun-17 01:58N 51°30' E 000°29'0 0.0
2018-Jun-17 01:31N 51°30' E 000°29'0 0.0
2018-Jun-17 01:00N 51°30' E 000°29'0 0.0
2018-Jun-17 00:31N 51°30' E 000°29'0 0.0
2018-Jun-17 00:00N 51°30' E 000°29'0 0.0
2018-Jun-16 23:29N 51°30' E 000°29'0 0.0
2018-Jun-16 23:01N 51°30' E 000°29'0 0.0
2018-Jun-16 22:30N 51°30' E 000°29'0 0.3
2018-Jun-16 22:00N 51°30' E 000°30'4 7.0
2018-Jun-16 21:30N 51°30' E 000°35'612.6
2018-Jun-16 21:00N 51°29' E 000°45'612.5
2018-Jun-16 20:31N 51°29' E 000°55'714.3
2018-Jun-16 20:00N 51°32' E 001°06'714.4
2018-Jun-16 19:30N 51°35' E 001°16'815.0
2018-Jun-16 19:00N 51°40' E 001°25'815.1
2018-Jun-16 18:30N 51°46' E 001°32'713.6
2018-Jun-16 18:01N 51°51' E 001°40'2 4.4
2018-Jun-16 17:31N 51°52' E 001°43'3 7.0
2018-Jun-16 17:01N 51°55' E 001°45'3 5.6
2018-Jun-16 16:31N 51°58' E 001°48'3 5.3
2018-Jun-16 16:01N 51°55' E 001°48'4 7.1
2018-Jun-16 15:31N 51°52' E 001°48'3 7.0
2018-Jun-16 15:01N 51°50' E 001°53'4 8.3
2018-Jun-16 14:31N 51°51' E 001°59'5 9.1
2018-Jun-16 14:01N 51°53' E 002°06'5 9.5
2018-Jun-16 13:31N 51°55' E 002°13'510.0
2018-Jun-16 13:01N 51°56' E 002°21'510.4
2018-Jun-16 12:30N 51°57' E 002°29'610.7
2018-Jun-16 11:59N 51°58' E 002°38'510.2
2018-Jun-16 11:30N 51°59' E 002°46'511.1
2018-Jun-16 11:00N 51°60' E 002°55'611.5
2018-Jun-16 10:28N 52°01' E 003°05'611.6
2018-Jun-16 09:56N 52°02' E 003°15'511.6
2018-Jun-16 09:29N 52°02' E 003°23'611.7
2018-Jun-16 09:00N 52°03' E 003°32'611.7
2018-Jun-16 08:30N 52°03' E 003°41'510.7
2018-Jun-16 08:01N 52°03' E 003°50'4 7.3
2018-Jun-16 07:30N 52°02' E 003°56'714.2
2018-Jun-16 07:00N 51°59' E 004°06'612.4
2018-Jun-16 06:30N 51°55' E 004°14'5 9.1
2018-Jun-16 06:00N 51°54' E 004°22'3 6.0
2018-Jun-16 05:30N 51°54' E 004°26'0 0.7
2018-Jun-16 04:59N 51°53' E 004°26'0 0.0
2018-Jun-16 04:29N 51°53' E 004°26'0 0.0
2018-Jun-16 03:58N 51°53' E 004°26'0 0.0
2018-Jun-16 03:28N 51°53' E 004°26'0 0.0
2018-Jun-16 02:58N 51°53' E 004°26'0 0.0
2018-Jun-16 02:28N 51°53' E 004°26'0 0.0
2018-Jun-16 02:01N 51°53' E 004°26'0 0.0
2018-Jun-16 01:30N 51°53' E 004°26'0 0.0
2018-Jun-16 01:00N 51°53' E 004°26'0 0.0
2018-Jun-16 00:30N 51°53' E 004°26'0 0.0
2018-Jun-16 00:00N 51°53' E 004°26'0 0.0
2018-Jun-15 23:29N 51°53' E 004°26'0 0.0
2018-Jun-15 22:59N 51°53' E 004°26'0 0.0
2018-Jun-15 22:29N 51°53' E 004°26'0 0.0
2018-Jun-15 21:59N 51°53' E 004°26'0 0.0
2018-Jun-15 21:29N 51°53' E 004°26'0 0.0
2018-Jun-15 20:58N 51°53' E 004°26'0 0.0
2018-Jun-15 20:28N 51°53' E 004°26'0 0.0
2018-Jun-15 19:58N 51°53' E 004°26'0 0.0
2018-Jun-15 19:28N 51°53' E 004°26'0 0.0
2018-Jun-15 19:00N 51°53' E 004°26'0 0.0
2018-Jun-15 18:27N 51°53' E 004°26'0 0.0
2018-Jun-15 18:00N 51°53' E 004°26'0 0.0
2018-Jun-15 17:30N 51°53' E 004°26'0 0.0
2018-Jun-15 17:00N 51°53' E 004°26'0 0.0
2018-Jun-15 16:29N 51°53' E 004°26'0 0.0
2018-Jun-15 15:59N 51°53' E 004°26'0 0.0
2018-Jun-15 15:29N 51°53' E 004°26'0 0.0
2018-Jun-15 14:59N 51°53' E 004°26'0 0.0
2018-Jun-15 14:29N 51°53' E 004°26'0 0.0
2018-Jun-15 13:58N 51°53' E 004°26'0 0.0
2018-Jun-15 13:28N 51°53' E 004°26'0 0.0
2018-Jun-15 12:58N 51°53' E 004°26'0 0.0
2018-Jun-15 12:28N 51°53' E 004°26'0 0.0
2018-Jun-15 12:00N 51°53' E 004°26'0 0.0
2018-Jun-15 11:30N 51°53' E 004°26'0 0.0
2018-Jun-15 11:00N 51°53' E 004°26'0 0.0
2018-Jun-15 10:30N 51°53' E 004°26'0 0.0
2018-Jun-15 10:00N 51°53' E 004°26'0 0.0
2018-Jun-15 09:29N 51°53' E 004°26'0 0.0
2018-Jun-15 08:59N 51°53' E 004°26'0 0.0
2018-Jun-15 08:29N 51°53' E 004°26'0 0.0
2018-Jun-15 07:59N 51°53' E 004°26'0 0.0
2018-Jun-15 07:29N 51°53' E 004°26'0 0.0
2018-Jun-15 06:58N 51°53' E 004°26'0 0.0
2018-Jun-15 06:28N 51°53' E 004°26'0 0.0
2018-Jun-15 05:58N 51°53' E 004°26'0 0.0
2018-Jun-15 05:28N 51°53' E 004°26'0 0.0
2018-Jun-15 05:00N 51°53' E 004°26'0 0.0
2018-Jun-15 04:30N 51°53' E 004°26'0 0.8
2018-Jun-15 04:00N 51°54' E 004°26'3 5.5
2018-Jun-15 03:30N 51°54' E 004°22'4 7.9
2018-Jun-15 03:00N 51°54' E 004°15'713.6
2018-Jun-15 02:31N 51°59' E 004°07'815.8
2018-Jun-15 02:00N 52°00' E 003°54'510.0
2018-Jun-15 01:31N 51°59' E 003°46'3 6.3
2018-Jun-15 01:00N 51°58' E 003°42'2 3.7
2018-Jun-15 00:31N 51°56' E 003°44'0 0.2
2018-Jun-14 23:54N 51°56' E 003°44'0 0.1
2018-Jun-14 23:30N 51°56' E 003°44'0 0.0
2018-Jun-14 22:45N 51°56' E 003°44'0 0.0
2018-Jun-14 22:30N 51°56' E 003°44'0 0.0
2018-Jun-14 22:00N 51°56' E 003°44'0 0.0
2018-Jun-14 21:30N 51°56' E 003°44'0 0.0
2018-Jun-14 21:00N 51°56' E 003°44'0 0.0
2018-Jun-14 20:30N 51°56' E 003°44'0 0.0
2018-Jun-14 20:00N 51°56' E 003°44'0 0.2
2018-Jun-14 19:30N 51°56' E 003°44'0 0.0
2018-Jun-14 18:59N 51°56' E 003°44'0 0.0
2018-Jun-14 17:58N 51°56' E 003°44'0 0.0
2018-Jun-14 17:29N 51°56' E 003°44'0 0.0
2018-Jun-14 17:00N 51°56' E 003°44'0 0.0
2018-Jun-14 16:29N 51°56' E 003°44'0 0.0
2018-Jun-14 16:00N 51°56' E 003°44'0 0.0
2018-Jun-14 15:30N 51°56' E 003°44'0 0.0
2018-Jun-14 15:00N 51°56' E 003°44'0 0.0
2018-Jun-14 14:30N 51°56' E 003°44'0 0.0
2018-Jun-14 14:00N 51°56' E 003°44'0 0.0
2018-Jun-14 13:30N 51°56' E 003°44'0 0.0
2018-Jun-14 13:00N 51°56' E 003°44'0 0.1
2018-Jun-14 12:30N 51°56' E 003°44'0 0.0
2018-Jun-14 12:01N 51°56' E 003°44'0 0.0
2018-Jun-14 11:27N 51°56' E 003°44'0 0.0
2018-Jun-14 10:57N 51°56' E 003°44'0 0.0
2018-Jun-14 10:30N 51°56' E 003°44'0 0.0
2018-Jun-14 10:00N 51°56' E 003°44'0 0.0
2018-Jun-14 09:29N 51°56' E 003°44'0 0.1
2018-Jun-14 09:00N 51°56' E 003°44'0 0.0
2018-Jun-14 08:30N 51°56' E 003°44'0 0.1
2018-Jun-14 08:00N 51°56' E 003°44'0 0.0
2018-Jun-14 07:30N 51°56' E 003°44'0 0.0
2018-Jun-14 07:01N 51°56' E 003°44'0 0.0
2018-Jun-14 06:31N 51°56' E 003°44'0 0.0
2018-Jun-14 06:00N 51°56' E 003°44'0 0.0
2018-Jun-14 05:30N 51°56' E 003°44'0 0.0
2018-Jun-14 05:01N 51°56' E 003°44'0 0.0
2018-Jun-14 04:30N 51°56' E 003°44'0 0.0
2018-Jun-14 04:00N 51°56' E 003°44'0 0.0
2018-Jun-14 03:30N 51°56' E 003°44'0 0.0
2018-Jun-14 03:00N 51°56' E 003°44'0 0.0
2018-Jun-14 02:30N 51°56' E 003°44'0 0.0
2018-Jun-14 02:00N 51°56' E 003°44'0 0.0
2018-Jun-14 01:30N 51°56' E 003°44'0 0.0
2018-Jun-14 01:00N 51°56' E 003°44'0 0.0
2018-Jun-14 00:30N 51°56' E 003°44'0 0.0
2018-Jun-14 00:00N 51°56' E 003°44'0 0.0
2018-Jun-13 23:30N 51°56' E 003°44'0 0.1
2018-Jun-13 23:00N 51°56' E 003°44'0 0.0
2018-Jun-13 22:31N 51°56' E 003°44'0 0.0
2018-Jun-13 22:00N 51°56' E 003°44'0 0.0
2018-Jun-13 21:30N 51°56' E 003°44'0 0.0
2018-Jun-13 21:00N 51°56' E 003°44'0 0.0
2018-Jun-13 20:30N 51°56' E 003°44'0 0.0
2018-Jun-13 20:00N 51°56' E 003°44'0 0.0
2018-Jun-13 19:30N 51°56' E 003°44'0 0.0
2018-Jun-13 19:00N 51°56' E 003°44'0 0.0
2018-Jun-13 18:31N 51°56' E 003°44'0 0.1
2018-Jun-13 18:00N 51°56' E 003°44'0 0.0
2018-Jun-13 17:31N 51°56' E 003°44'0 0.0
2018-Jun-13 17:01N 51°56' E 003°44'0 0.0
2018-Jun-13 16:30N 51°56' E 003°44'0 0.0
2018-Jun-13 16:01N 51°56' E 003°44'0 0.0
2018-Jun-13 15:30N 51°56' E 003°44'0 0.0
2018-Jun-13 15:00N 51°56' E 003°44'0 0.0
2018-Jun-13 14:30N 51°56' E 003°44'0 0.0
2018-Jun-13 14:00N 51°56' E 003°44'0 0.0
2018-Jun-13 13:31N 51°56' E 003°44'0 0.0
2018-Jun-13 13:00N 51°56' E 003°44'0 0.1
2018-Jun-13 12:29N 51°56' E 003°44'0 0.0
2018-Jun-13 11:59N 51°56' E 003°44'0 0.1
2018-Jun-13 11:31N 51°56' E 003°44'0 0.0
2018-Jun-13 11:00N 51°56' E 003°44'0 0.0
2018-Jun-13 10:30N 51°56' E 003°44'0 0.0
2018-Jun-13 10:00N 51°56' E 003°44'0 0.0
2018-Jun-13 09:31N 51°56' E 003°44'0 0.0
2018-Jun-13 09:00N 51°56' E 003°44'0 0.0
2018-Jun-13 08:31N 51°56' E 003°44'0 0.0
2018-Jun-13 07:59N 51°56' E 003°44'0 0.0
2018-Jun-13 07:30N 51°56' E 003°44'0 0.0
2018-Jun-13 07:00N 51°56' E 003°44'0 0.0
2018-Jun-13 06:29N 51°56' E 003°44'0 0.0
2018-Jun-13 06:01N 51°56' E 003°44'0 0.0
2018-Jun-13 05:31N 51°56' E 003°44'0 0.0
2018-Jun-13 05:00N 51°56' E 003°44'0 0.0
2018-Jun-13 04:31N 51°56' E 003°44'0 0.0
2018-Jun-13 04:00N 51°56' E 003°44'0 0.0
2018-Jun-13 03:31N 51°56' E 003°44'0 0.0
2018-Jun-13 03:00N 51°56' E 003°44'0 0.1
2018-Jun-13 02:30N 51°56' E 003°44'0 0.0
2018-Jun-13 02:00N 51°56' E 003°44'0 0.0
2018-Jun-13 01:31N 51°56' E 003°44'  

Dump ship's entire track history